Crystal Coast — WDC9132 — position and weather

sailwx.info

Track history (hours):
 
Tides and Currents Weather Stations Pressure Air Temp Water Temp Dewpoint Dewpoint Depression Visibility Wind Speed Wind Dir Waves Ship Positions

Crystal Coast

Owner: Dann Marine Towing, LC, Chesapeake City, MD. More information available from US FCC via Universal Licensing System and Coast Guard Vessel Documentation Center.

Last reported at 2017-Sep-22 02:00 UTC. Time now 2017-Sep-22 19:03 UTC.
Position N 39°11' W 075°24'.

Length 22 m; draft 2.9 m.

Type: Tug. MMSI: 36797970.

Date/timePositionNaut miles runAvg speedWind from/ knotsBaromVisibWave heightAir tempDewpointWater temp
2017-Sep-22 02:00N 39°11' W 075°24'0 0.0
2017-Sep-22 01:30N 39°11' W 075°24'0 0.0
2017-Sep-22 01:01N 39°11' W 075°24'0 0.0
2017-Sep-22 00:30N 39°11' W 075°24'0 0.0
2017-Sep-22 00:00N 39°11' W 075°24'0 0.0
2017-Sep-21 23:30N 39°11' W 075°24'0 0.0
2017-Sep-21 23:00N 39°11' W 075°24'0 0.0
2017-Sep-21 22:30N 39°11' W 075°24'0 0.0
2017-Sep-21 22:00N 39°11' W 075°24'0 0.0
2017-Sep-21 21:30N 39°11' W 075°24'0 0.0
2017-Sep-21 21:00N 39°11' W 075°24'0 0.0
2017-Sep-21 20:30N 39°11' W 075°24'0 0.0
2017-Sep-21 20:00N 39°11' W 075°24'0 0.0
2017-Sep-21 19:30N 39°11' W 075°24'0 0.0
2017-Sep-21 19:00N 39°11' W 075°24'0 0.0
2017-Sep-21 18:30N 39°11' W 075°24'0 0.0
2017-Sep-21 18:00N 39°11' W 075°24'0 0.0
2017-Sep-21 17:30N 39°11' W 075°24'0 0.0
2017-Sep-21 17:00N 39°11' W 075°24'0 0.0
2017-Sep-21 16:30N 39°11' W 075°24'0 0.0
2017-Sep-21 16:00N 39°11' W 075°24'0 0.0
2017-Sep-21 15:30N 39°11' W 075°24'0 0.0
2017-Sep-21 15:00N 39°11' W 075°24'0 0.0
2017-Sep-21 14:30N 39°11' W 075°24'0 0.6
2017-Sep-21 14:00N 39°11' W 075°24'2 3.5
2017-Sep-21 13:30N 39°12' W 075°22'2 3.2
2017-Sep-21 13:01N 39°13' W 075°20'1 2.0
2017-Sep-21 12:30N 39°14' W 075°20'1 1.1
2017-Sep-21 12:00N 39°15' W 075°21'0 0.9
2017-Sep-21 11:31N 39°15' W 075°21'2 4.9
2017-Sep-21 11:00N 39°17' W 075°22'3 5.9
2017-Sep-21 10:30N 39°19' W 075°25'4 7.2
2017-Sep-21 10:00N 39°22' W 075°28'4 8.3
2017-Sep-21 09:30N 39°25' W 075°31'4 9.0
2017-Sep-21 09:01N 39°29' W 075°34'4 8.7
2017-Sep-21 08:30N 39°34' W 075°33'3 6.1
2017-Sep-21 08:00N 39°33' W 075°37'3 5.5
2017-Sep-21 07:30N 39°33' W 075°41'3 5.4
2017-Sep-21 07:00N 39°32' W 075°44'3 5.1
2017-Sep-21 06:30N 39°32' W 075°47'2 4.5
2017-Sep-21 06:00N 39°32' W 075°50'2 4.8
2017-Sep-21 05:30N 39°31' W 075°53'3 5.5
2017-Sep-21 05:00N 39°29' W 075°56'3 6.2
2017-Sep-21 04:30N 39°27' W 075°59'3 6.5
2017-Sep-21 04:00N 39°25' W 076°02'3 6.4
2017-Sep-21 03:30N 39°23' W 076°05'3 6.6
2017-Sep-21 03:00N 39°22' W 076°09'3 7.0
2017-Sep-21 02:30N 39°19' W 076°12'3 6.4
2017-Sep-21 02:00N 39°17' W 076°15'3 7.0
2017-Sep-21 01:30N 39°15' W 076°18'4 7.1
2017-Sep-21 01:00N 39°13' W 076°22'4 7.0
2017-Sep-21 00:30N 39°11' W 076°26'4 6.9
2017-Sep-21 00:00N 39°12' W 076°30'4 7.2
2017-Sep-20 23:30N 39°15' W 076°33'1 1.2
2017-Sep-20 23:00N 39°15' W 076°33'0 0.0
2017-Sep-20 22:30N 39°15' W 076°33'0 0.0
2017-Sep-20 22:00N 39°15' W 076°33'0 0.0
2017-Sep-20 21:30N 39°15' W 076°33'0 0.0
2017-Sep-20 21:00N 39°15' W 076°33'0 0.0
2017-Sep-20 20:30N 39°15' W 076°33'0 0.0
2017-Sep-20 20:00N 39°15' W 076°33'0 0.0
2017-Sep-20 19:30N 39°15' W 076°33'0 0.0
2017-Sep-20 19:00N 39°15' W 076°33'0 0.0
2017-Sep-20 18:30N 39°15' W 076°33'0 0.0
2017-Sep-20 18:00N 39°15' W 076°33'0 0.0
2017-Sep-20 17:30N 39°15' W 076°33'0 0.0
2017-Sep-20 17:00N 39°15' W 076°33'0 0.0
2017-Sep-20 16:30N 39°15' W 076°33'0 0.0
2017-Sep-20 16:00N 39°15' W 076°33'0 0.0
2017-Sep-20 15:30N 39°15' W 076°33'0 0.0
2017-Sep-20 15:00N 39°15' W 076°33'0 0.1
2017-Sep-20 14:00N 39°16' W 076°33'0 0.0
2017-Sep-20 13:30N 39°16' W 076°33'0 0.0
2017-Sep-20 13:00N 39°16' W 076°33'0 0.0
2017-Sep-20 12:30N 39°16' W 076°33'0 0.1
2017-Sep-20 12:00N 39°16' W 076°33'0 0.0
2017-Sep-20 11:30N 39°16' W 076°33'0 0.0
2017-Sep-20 11:00N 39°16' W 076°33'0 0.0
2017-Sep-20 10:30N 39°16' W 076°33'0 0.0
2017-Sep-20 10:00N 39°16' W 076°33'0 0.0
2017-Sep-20 09:30N 39°16' W 076°33'0 0.0
2017-Sep-20 09:00N 39°16' W 076°33'0 0.0
2017-Sep-20 08:30N 39°16' W 076°33'0 0.0
2017-Sep-20 08:00N 39°16' W 076°33'0 0.0
2017-Sep-20 07:30N 39°16' W 076°33'0 0.0
2017-Sep-20 07:00N 39°16' W 076°33'0 0.0
2017-Sep-20 06:30N 39°16' W 076°33'0 0.0
2017-Sep-20 06:00N 39°16' W 076°33'0 0.0
2017-Sep-20 05:30N 39°16' W 076°33'0 0.0
2017-Sep-20 05:00N 39°16' W 076°33'0 0.0
2017-Sep-20 04:30N 39°16' W 076°33'0 0.0
2017-Sep-20 04:00N 39°16' W 076°33'0 0.0
2017-Sep-20 03:30N 39°16' W 076°33'0 0.0
2017-Sep-20 03:00N 39°16' W 076°33'0 0.0
2017-Sep-20 02:30N 39°16' W 076°33'0 0.0
2017-Sep-20 02:00N 39°16' W 076°33'0 0.0
2017-Sep-20 01:30N 39°16' W 076°33'0 0.0
2017-Sep-20 01:00N 39°16' W 076°33'0 0.0
2017-Sep-20 00:30N 39°16' W 076°33'0 0.0
2017-Sep-20 00:00N 39°16' W 076°33'0 0.2
2017-Sep-19 23:30N 39°15' W 076°33'0 0.0
2017-Sep-19 23:00N 39°15' W 076°33'0 0.0
2017-Sep-19 22:30N 39°15' W 076°33'0 0.0
2017-Sep-19 22:00N 39°15' W 076°33'0 0.0
2017-Sep-19 21:30N 39°15' W 076°33'0 0.0
2017-Sep-19 21:00N 39°15' W 076°33'0 0.0
2017-Sep-19 20:30N 39°15' W 076°33'0 0.0
2017-Sep-19 20:00N 39°15' W 076°33'0 0.0
2017-Sep-19 19:30N 39°15' W 076°33'0 0.0
2017-Sep-19 19:00N 39°15' W 076°33'0 0.0
2017-Sep-19 18:30N 39°15' W 076°33'0 0.0
2017-Sep-19 18:00N 39°15' W 076°33'0 0.0
2017-Sep-19 17:30N 39°15' W 076°33'0 0.0
2017-Sep-19 17:00N 39°15' W 076°33'0 0.0
2017-Sep-19 16:30N 39°15' W 076°33'0 0.0
2017-Sep-19 16:00N 39°15' W 076°33'0 0.1
2017-Sep-19 15:30N 39°16' W 076°33'0 0.1
2017-Sep-19 15:00N 39°15' W 076°33'0 0.0
2017-Sep-19 14:30N 39°15' W 076°33'0 0.0
2017-Sep-19 14:00N 39°15' W 076°33'0 0.0
2017-Sep-19 13:30N 39°15' W 076°33'0 0.0
2017-Sep-19 13:00N 39°15' W 076°33'0 0.0
2017-Sep-19 12:30N 39°15' W 076°33'0 0.0
2017-Sep-19 12:00N 39°15' W 076°33'0 0.0
2017-Sep-19 11:30N 39°15' W 076°33'0 0.0
2017-Sep-19 11:00N 39°15' W 076°33'0 0.0
2017-Sep-19 10:30N 39°15' W 076°33'0 0.0
2017-Sep-19 10:00N 39°15' W 076°33'0 0.0
2017-Sep-19 09:30N 39°15' W 076°33'0 0.0
2017-Sep-19 01:17N 39°15' W 076°33'0 0.0
2017-Sep-19 01:00N 39°15' W 076°33'1 1.9
2017-Sep-19 00:30N 39°15' W 076°34'0 0.0
2017-Sep-19 00:00N 39°15' W 076°34'0 0.0
2017-Sep-18 23:30N 39°15' W 076°34'0 0.0
2017-Sep-18 23:00N 39°15' W 076°34'0 0.0
2017-Sep-18 22:30N 39°15' W 076°34'0 0.0
2017-Sep-18 22:00N 39°15' W 076°34'0 0.0
2017-Sep-18 21:30N 39°15' W 076°34'0 0.0
2017-Sep-18 21:00N 39°15' W 076°34'0 0.0
2017-Sep-18 20:30N 39°15' W 076°34'0 0.0
2017-Sep-18 20:00N 39°15' W 076°34'0 0.0
2017-Sep-18 19:30N 39°15' W 076°34'0 0.0
2017-Sep-18 19:00N 39°15' W 076°34'0 0.0
2017-Sep-18 18:30N 39°15' W 076°34'0 0.0
2017-Sep-18 18:00N 39°15' W 076°34'0 0.0
2017-Sep-18 17:30N 39°15' W 076°34'0 0.0
2017-Sep-18 17:00N 39°15' W 076°34'0 0.0
2017-Sep-18 16:30N 39°15' W 076°34'0 0.0
2017-Sep-18 16:00N 39°15' W 076°34'0 0.0
2017-Sep-18 15:30N 39°15' W 076°34'0 0.0
2017-Sep-18 15:00N 39°15' W 076°34'0 0.0
2017-Sep-18 14:30N 39°15' W 076°34'0 0.0
2017-Sep-18 14:00N 39°15' W 076°34'1 1.8
2017-Sep-18 13:30N 39°15' W 076°33'0 0.3
2017-Sep-18 13:00N 39°16' W 076°33'0 0.0
2017-Sep-18 12:30N 39°16' W 076°33'0 0.0
2017-Sep-18 12:00N 39°16' W 076°33'0 0.0
2017-Sep-18 11:30N 39°16' W 076°33'0 0.0
2017-Sep-18 11:00N 39°16' W 076°33'0 0.0
2017-Sep-18 10:30N 39°16' W 076°33'0 0.0
2017-Sep-18 10:00N 39°16' W 076°33'0 0.0
2017-Sep-18 09:30N 39°16' W 076°33'0 0.0
2017-Sep-18 09:00N 39°16' W 076°33'0 0.0
2017-Sep-18 08:30N 39°16' W 076°33'0 0.0
2017-Sep-18 08:00N 39°16' W 076°33'0 0.0
2017-Sep-18 07:30N 39°16' W 076°33'0 0.0
2017-Sep-18 07:00N 39°16' W 076°33'0 0.0
2017-Sep-18 06:30N 39°16' W 076°33'0 0.0
2017-Sep-18 06:00N 39°16' W 076°33'0 0.0
2017-Sep-18 05:30N 39°16' W 076°33'0 0.0
2017-Sep-18 05:00N 39°16' W 076°33'0 0.0
2017-Sep-18 04:30N 39°16' W 076°33'0 0.0
2017-Sep-18 04:00N 39°16' W 076°33'0 0.0
2017-Sep-18 03:30N 39°16' W 076°33'0 0.0
2017-Sep-18 03:00N 39°16' W 076°33'0 0.0
2017-Sep-18 02:30N 39°16' W 076°33'0 0.0
2017-Sep-18 02:00N 39°16' W 076°33'0 0.0
2017-Sep-18 01:30N 39°16' W 076°33'0 0.0
2017-Sep-18 01:00N 39°16' W 076°33'0 0.0
2017-Sep-18 00:30N 39°16' W 076°33'0 0.0
2017-Sep-18 00:00N 39°16' W 076°33'0 0.0
2017-Sep-17 23:30N 39°16' W 076°33'0 0.0
2017-Sep-17 23:00N 39°16' W 076°33'0 0.7
2017-Sep-17 22:30N 39°15' W 076°34'1 1.6
2017-Sep-17 22:00N 39°15' W 076°34'0 0.0
2017-Sep-17 21:30N 39°15' W 076°34'0 0.0
2017-Sep-17 21:00N 39°15' W 076°34'0 0.0
2017-Sep-17 20:30N 39°15' W 076°34'0 0.0
2017-Sep-17 20:00N 39°15' W 076°34'0 0.0
2017-Sep-17 19:30N 39°15' W 076°34'1 1.9
2017-Sep-17 19:00N 39°15' W 076°33'0 0.4
2017-Sep-17 18:30N 39°16' W 076°33'0 0.0
2017-Sep-17 18:00N 39°16' W 076°33'0 0.0
2017-Sep-17 17:30N 39°16' W 076°33'0 0.0
2017-Sep-17 17:00N 39°16' W 076°33'0 0.0
2017-Sep-17 16:30N 39°16' W 076°33'0 0.0
2017-Sep-17 16:00N 39°16' W 076°33'0 0.0
2017-Sep-17 15:30N 39°16' W 076°33'0 0.0
2017-Sep-17 15:00N 39°16' W 076°33'0 0.0
2017-Sep-17 14:30N 39°16' W 076°33'0 0.0
2017-Sep-17 14:00N 39°16' W 076°33'0 0.0
2017-Sep-17 13:30N 39°16' W 076°33'0 0.0
2017-Sep-17 13:00N 39°16' W 076°33'0 0.0
2017-Sep-17 12:30N 39°16' W 076°33'0 0.0
2017-Sep-17 12:00N 39°16' W 076°33'0 0.0
2017-Sep-17 11:30N 39°16' W 076°33'0 0.0
2017-Sep-17 11:00N 39°16' W 076°33'0 0.0
2017-Sep-17 10:30N 39°16' W 076°33'0 0.0
2017-Sep-17 10:00N 39°16' W 076°33'0 0.0
2017-Sep-17 09:30N 39°16' W 076°33'0 0.0
2017-Sep-17 09:00N 39°16' W 076°33'0 0.0
2017-Sep-17 08:30N 39°16' W 076°33'0 0.0
2017-Sep-17 08:00N 39°16' W 076°33'0 0.0
2017-Sep-17 07:30N 39°16' W 076°33'0 0.0
2017-Sep-17 07:00N 39°16' W 076°33'0 0.0
2017-Sep-17 06:30N 39°16' W 076°33'0 0.0
2017-Sep-17 06:00N 39°16' W 076°33'0 0.0
2017-Sep-17 05:30N 39°16' W 076°33'0 0.0
2017-Sep-17 05:00N 39°16' W 076°33'0 0.0
2017-Sep-17 04:30N 39°16' W 076°33'0 0.0
2017-Sep-17 04:00N 39°16' W 076°33'0 0.0
2017-Sep-17 03:30N 39°16' W 076°33'0 0.0
2017-Sep-17 03:00N 39°16' W 076°33'0 0.0
2017-Sep-17 02:30N 39°16' W 076°33'0 0.0
2017-Sep-17 02:00N 39°16' W 076°33'0 0.0
2017-Sep-17 01:30N 39°16' W 076°33'0 0.0
2017-Sep-17 01:00N 39°16' W 076°33'0 0.0
2017-Sep-17 00:30N 39°16' W 076°33'0 0.0
2017-Sep-17 00:00N 39°16' W 076°33'0 0.0
2017-Sep-16 23:30N 39°16' W 076°33'0 0.0
2017-Sep-16 23:00N 39°16' W 076°33'0 0.0
2017-Sep-16 22:30N 39°16' W 076°33'0 0.0
2017-Sep-16 22:00N 39°16' W 076°33'0 0.0
2017-Sep-16 21:30N 39°16' W 076°33'0 0.0
2017-Sep-16 21:00N 39°16' W 076°33'0 0.0
2017-Sep-16 20:30N 39°16' W 076°33'0 0.0
2017-Sep-16 20:00N 39°16' W 076°33'0 0.2
2017-Sep-16 19:30N 39°15' W 076°33'3 5.1
2017-Sep-16 19:00N 39°13' W 076°32'4 7.6
2017-Sep-16 18:30N 39°11' W 076°28'10 7.0
2017-Sep-16 17:06N 39°16' W 076°16'1 7.5
2017-Sep-16 16:58N 39°16' W 076°15'4 7.7
2017-Sep-16 16:29N 39°19' W 076°13'4 8.6
2017-Sep-16 16:00N 39°22' W 076°08'4 8.8
2017-Sep-16 15:30N 39°24' W 076°03'4 8.6
2017-Sep-16 15:00N 39°27' W 075°59'4 8.8
2017-Sep-16 14:31N 39°30' W 075°55'4 8.6
2017-Sep-16 14:00N 39°32' W 075°50'4 8.1
2017-Sep-16 13:30N 39°32' W 075°45'4 8.1
2017-Sep-16 13:00N 39°33' W 075°40'4 7.4
2017-Sep-16 12:30N 39°33' W 075°35'2 4.5
2017-Sep-16 12:01N 39°35' W 075°34'3 5.0
2017-Sep-16 11:30N 39°38' W 075°34'3 5.8
2017-Sep-16 11:00N 39°40' W 075°32'3 5.9
2017-Sep-16 10:30N 39°43' W 075°30'3 6.4
2017-Sep-16 10:00N 39°46' W 075°29'4 7.3
2017-Sep-16 09:30N 39°48' W 075°25'4 8.6
2017-Sep-16 09:00N 39°51' W 075°20'4 8.8
2017-Sep-16 08:30N 39°51' W 075°15'4 8.7
2017-Sep-16 08:00N 39°53' W 075°10'4 7.8
2017-Sep-16 07:30N 39°57' W 075°08'4 8.3
2017-Sep-16 07:00N 39°59' W 075°04'4 8.5
2017-Sep-16 06:30N 40°02' W 074°60'4 8.8
2017-Sep-16 06:01N 40°04' W 074°55'2 3.9
2017-Sep-16 05:31N 40°05' W 074°52'0 0.0
2017-Sep-16 05:00N 40°05' W 074°52'0 0.0
2017-Sep-16 04:30N 40°05' W 074°52'0 0.0
2017-Sep-16 03:50N 40°05' W 074°52'0 0.0
2017-Sep-16 03:30N 40°05' W 074°52'0 0.0
2017-Sep-16 01:52N 40°05' W 074°52'0 0.0
2017-Sep-16 01:30N 40°05' W 074°52'0 0.0
2017-Sep-16 01:00N 40°05' W 074°52'0 0.0
2017-Sep-16 00:30N 40°05' W 074°52'0 0.0
2017-Sep-16 00:00N 40°05' W 074°52'0 0.0
2017-Sep-15 22:40N 40°05' W 074°52'0 0.0
2017-Sep-15 22:30N 40°05' W 074°52'0 0.0
2017-Sep-15 21:59N 40°05' W 074°52'0 0.0
2017-Sep-15 21:29N 40°05' W 074°52'0 0.0
2017-Sep-15 21:00N 40°05' W 074°52'0 0.0
2017-Sep-15 20:05N 40°05' W 074°52'0 0.0
2017-Sep-15 19:56N 40°05' W 074°52'0 0.0
2017-Sep-15 19:09N 40°05' W 074°52'0 0.0
2017-Sep-15 18:54N 40°05' W 074°52'0 0.0
2017-Sep-15 18:30N 40°05' W 074°52'0 0.0
2017-Sep-15 17:59N 40°05' W 074°52'0 0.0
2017-Sep-15 17:30N 40°05' W 074°52'0 0.0
2017-Sep-15 17:00N 40°05' W 074°52'0 0.0
2017-Sep-15 16:30N 40°05' W 074°52'0 0.0
2017-Sep-15 15:58N 40°05' W 074°52'0 0.0
2017-Sep-15 15:28N 40°05' W 074°52'0 0.9
2017-Sep-15 15:00N 40°05' W 074°53'2 4.6
2017-Sep-15 14:30N 40°04' W 074°56'3 5.2
2017-Sep-15 14:00N 40°03' W 074°59'3 5.3
2017-Sep-15 13:30N 40°01' W 075°01'3 5.3
2017-Sep-15 13:00N 39°59' W 075°04'3 5.8
2017-Sep-15 12:31N 39°58' W 075°07'3 5.9
2017-Sep-15 12:01N 39°55' W 075°08'3 5.9
2017-Sep-15 11:30N 39°53' W 075°11'4 7.3
2017-Sep-15 11:01N 39°51' W 075°15'4 7.6
2017-Sep-15 10:31N 39°51' W 075°20'4 7.7
2017-Sep-15 10:01N 39°49' W 075°24'4 7.1
2017-Sep-15 09:30N 39°47' W 075°28'3 7.0
2017-Sep-15 09:00N 39°44' W 075°30'4 7.1
2017-Sep-15 08:30N 39°40' W 075°32'3 6.9
2017-Sep-15 08:00N 39°38' W 075°34'3 6.5
2017-Sep-15 07:30N 39°35' W 075°33'3 6.2
2017-Sep-15 07:00N 39°33' W 075°37'4 8.6
2017-Sep-15 06:30N 39°33' W 075°42'4 8.5
2017-Sep-15 06:00N 39°32' W 075°48'4 7.7
2017-Sep-15 05:30N 39°31' W 075°53'4 7.2
2017-Sep-15 05:00N 39°29' W 075°57'4 7.0
2017-Sep-15 04:30N 39°27' W 075°60'3 6.8
2017-Sep-15 04:00N 39°24' W 076°03'3 6.5
2017-Sep-15 03:30N 39°23' W 076°06'3 6.2
2017-Sep-15 03:00N 39°21' W 076°10'3 5.8
2017-Sep-15 02:30N 39°19' W 076°13'3 5.3
2017-Sep-15 02:00N 39°16' W 076°14'3 5.6
2017-Sep-15 01:30N 39°14' W 076°15'3 5.5
2017-Sep-15 01:00N 39°12' W 076°17'3 5.5
2017-Sep-15 00:30N 39°10' W 076°19'3 5.7
2017-Sep-15 00:00N 39°10' W 076°23'3 6.6
2017-Sep-14 23:30N 39°11' W 076°27'3 6.7
2017-Sep-14 23:00N 39°12' W 076°31'3 6.6
2017-Sep-14 22:30N 39°15' W 076°34'1 1.4
2017-Sep-14 22:00N 39°15' W 076°34'0 0.0
2017-Sep-14 21:30N 39°15' W 076°34'0 0.1
2017-Sep-14 21:00N 39°15' W 076°34'0 0.0
2017-Sep-14 20:30N 39°15' W 076°34'0 0.0
2017-Sep-14 20:00N 39°15' W 076°34'0 0.0
2017-Sep-14 19:30N 39°15' W 076°34'0 0.0
2017-Sep-14 19:00N 39°15' W 076°34'0 0.0
2017-Sep-14 18:30N 39°15' W 076°34'0 0.0
2017-Sep-14 18:00N 39°15' W 076°34'0 0.0
2017-Sep-14 17:30N 39°15' W 076°34'0 0.0
2017-Sep-14 17:00N 39°15' W 076°34'0 0.0
2017-Sep-14 16:30N 39°15' W 076°34'0 0.0
2017-Sep-14 16:00N 39°15' W 076°34'0 0.0
2017-Sep-14 15:30N 39°15' W 076°34'0 0.0
2017-Sep-14 15:00N 39°15' W 076°34'0 0.0
2017-Sep-14 14:30N 39°15' W 076°34'0 0.0
2017-Sep-14 14:00N 39°15' W 076°34'0 0.0
2017-Sep-14 13:30N 39°15' W 076°34'0 0.0
2017-Sep-14 13:00N 39°15' W 076°34'0 0.0
2017-Sep-14 12:30N 39°15' W 076°34'0 0.0
2017-Sep-14 12:00N 39°15' W 076°34'0 0.0
2017-Sep-14 11:30N 39°15' W 076°34'0 0.0
2017-Sep-14 11:00N 39°15' W 076°34'0 0.0
2017-Sep-14 10:30N 39°15' W 076°34'0 0.0
2017-Sep-14 10:00N 39°15' W 076°34'0 0.0
2017-Sep-14 09:30N 39°15' W 076°34'0 0.0
2017-Sep-14 09:00N 39°15' W 076°34'0 0.0
2017-Sep-14 08:30N 39°15' W 076°34'0 0.0
2017-Sep-14 08:00N 39°15' W 076°34'0 0.6
2017-Sep-14 07:30N 39°15' W 076°34'0 0.0
2017-Sep-14 07:00N 39°15' W 076°34'0 0.0
2017-Sep-14 06:30N 39°15' W 076°34'0 0.7
2017-Sep-14 06:01N 39°15' W 076°34'0 0.0
2017-Sep-14 05:30N 39°15' W 076°34'0 0.0
2017-Sep-14 05:01N 39°15' W 076°34'2 4.4
2017-Sep-14 04:30N 39°14' W 076°32'4 7.9
2017-Sep-14 04:00N 39°11' W 076°28'3 6.9
2017-Sep-14 03:30N 39°12' W 076°24'4 7.0
2017-Sep-14 03:00N 39°14' W 076°20'4 7.1
2017-Sep-14 02:30N 39°16' W 076°16'4 7.3
2017-Sep-14 02:00N 39°19' W 076°13'4 8.2
2017-Sep-14 01:30N 39°22' W 076°09'4 8.9
2017-Sep-14 01:00N 39°24' W 076°04'4 8.7
2017-Sep-14 00:30N 39°26' W 075°60'5 9.0
2017-Sep-14 00:00N 39°30' W 075°56'5 9.2
2017-Sep-13 23:30N 39°32' W 075°51'5 9.3
2017-Sep-13 23:00N 39°32' W 075°45'5 9.4
2017-Sep-13 22:30N 39°33' W 075°39'4 8.7
2017-Sep-13 22:00N 39°34' W 075°33'3 6.2
2017-Sep-13 21:30N 39°37' W 075°35'3 5.8
2017-Sep-13 21:00N 39°39' W 075°33'3 5.9
2017-Sep-13 20:31N 39°42' W 075°31'3 5.6
2017-Sep-13 20:00N 39°45' W 075°30'3 6.1
2017-Sep-13 19:30N 39°47' W 075°28'3 6.6
2017-Sep-13 19:00N 39°49' W 075°24'4 7.2
2017-Sep-13 18:31N 39°51' W 075°20'4 8.1
2017-Sep-13 18:00N 39°51' W 075°15'4 8.7
2017-Sep-13 17:30N 39°53' W 075°10'4 7.6
2017-Sep-13 17:00N 39°57' W 075°08'4 8.3
2017-Sep-13 16:30N 39°59' W 075°04'4 8.5
2017-Sep-13 16:00N 40°02' W 074°60'4 8.8
2017-Sep-13 15:31N 40°04' W 074°55'2 4.1
2017-Sep-13 15:01N 40°05' W 074°52'0 0.0
2017-Sep-13 14:30N 40°05' W 074°52'0 0.0
2017-Sep-13 14:00N 40°05' W 074°52'0 0.0
2017-Sep-13 13:30N 40°05' W 074°52'0 0.0
2017-Sep-13 13:00N 40°05' W 074°52'0 0.0
2017-Sep-13 12:30N 40°05' W 074°52'0 0.0
2017-Sep-13 12:00N 40°05' W 074°52'0 0.0
2017-Sep-13 11:30N 40°05' W 074°52'0 0.0
2017-Sep-13 11:00N 40°05' W 074°52'0 0.0
2017-Sep-13 10:30N 40°05' W 074°52'0 0.0
2017-Sep-13 10:00N 40°05' W 074°52'0 0.0
2017-Sep-13 09:30N 40°05' W 074°52'0 0.0
2017-Sep-13 09:00N 40°05' W 074°52'0 0.0
2017-Sep-13 08:30N 40°05' W 074°52'0 0.0
2017-Sep-13 08:01N 40°05' W 074°52'0 0.0
2017-Sep-13 07:30N 40°05' W 074°52'0 0.0
2017-Sep-13 07:00N 40°05' W 074°52'0 0.0
2017-Sep-13 06:30N 40°05' W 074°52'0 0.0
2017-Sep-13 06:00N 40°05' W 074°52'0 0.0
2017-Sep-13 05:30N 40°05' W 074°52'0 0.0
2017-Sep-13 05:00N 40°05' W 074°52'0 0.0
2017-Sep-13 04:30N 40°05' W 074°52'0 0.0
2017-Sep-13 04:00N 40°05' W 074°52'0 0.0
2017-Sep-13 03:30N 40°05' W 074°52'0 0.0
2017-Sep-13 03:00N 40°05' W 074°52'0 0.0
2017-Sep-13 02:30N 40°05' W 074°52'0 0.0
2017-Sep-13 02:00N 40°05' W 074°52'0 0.0
2017-Sep-13 01:30N 40°05' W 074°52'0 0.0
2017-Sep-13 01:00N 40°05' W 074°52'0 0.0
2017-Sep-13 00:30N 40°05' W 074°52'2 3.0
2017-Sep-13 00:00N 40°04' W 074°54'2 4.2
2017-Sep-12 23:31N 40°04' W 074°57'2 4.4
2017-Sep-12 23:00N 40°02' W 074°59'2 4.7
2017-Sep-12 22:30N 40°01' W 075°02'2 4.5
2017-Sep-12 22:01N 39°59' W 075°04'2 4.3
2017-Sep-12 21:30N 39°58' W 075°06'2 4.3
2017-Sep-12 21:01N 39°57' W 075°08'2 4.6
2017-Sep-12 20:30N 39°55' W 075°08'2 4.2
2017-Sep-12 20:00N 39°53' W 075°09'2 4.6
2017-Sep-12 19:30N 39°53' W 075°12'2 4.4
2017-Sep-12 19:01N 39°51' W 075°14'2 4.4
2017-Sep-12 18:31N 39°51' W 075°17'2 4.6
2017-Sep-12 18:01N 39°51' W 075°20'3 5.3
2017-Sep-12 17:30N 39°49' W 075°23'3 6.4
2017-Sep-12 17:01N 39°47' W 075°27'3 5.8
2017-Sep-12 16:30N 39°45' W 075°29'3 5.4
2017-Sep-12 16:00N 39°43' W 075°30'3 5.2
2017-Sep-12 15:30N 39°40' W 075°32'2 4.7
2017-Sep-12 15:00N 39°39' W 075°34'2 4.3
2017-Sep-12 14:31N 39°37' W 075°34'2 4.6
2017-Sep-12 14:00N 39°34' W 075°33'3 5.3
2017-Sep-12 13:30N 39°33' W 075°36'3 6.5
2017-Sep-12 13:01N 39°33' W 075°40'3 6.3
2017-Sep-12 12:30N 39°32' W 075°45'18 5.5
2017-Sep-12 09:15N 39°23' W 076°04'1 5.7
2017-Sep-12 09:00N 39°23' W 076°06'3 5.7
2017-Sep-12 08:30N 39°21' W 076°09'3 5.8
2017-Sep-12 08:00N 39°20' W 076°12'3 5.9
2017-Sep-12 07:30N 39°17' W 076°14'3 6.2
2017-Sep-12 07:00N 39°14' W 076°15'3 6.4
2017-Sep-12 06:30N 39°11' W 076°17'3 6.5
2017-Sep-12 06:00N 39°09' W 076°20'3 6.7
2017-Sep-12 05:30N 39°10' W 076°24'3 6.9
2017-Sep-12 05:00N 39°11' W 076°28'3 6.8
2017-Sep-12 04:30N 39°13' W 076°32'3 5.7
2017-Sep-12 04:00N 39°15' W 076°34'0 0.2
2017-Sep-12 03:30N 39°15' W 076°34'0 0.0
2017-Sep-12 03:00N 39°15' W 076°34'0 0.1
2017-Sep-12 02:30N 39°15' W 076°34'  
Track history (hours):
 
Tides and Currents Weather Stations Pressure Air Temp Water Temp Dewpoint Dewpoint Depression Visibility Wind Speed Wind Dir Waves Ship Positions

Crystal Coast

Owner: Dann Marine Towing, LC, Chesapeake City, MD. More information available from US FCC via Universal Licensing System and Coast Guard Vessel Documentation Center.

Last reported at 2017-Sep-22 02:00 UTC. Time now 2017-Sep-22 19:03 UTC.
Position N 39°11' W 075°24'.

Length 22 m; draft 2.9 m.

Type: Tug. MMSI: 36797970.

Date/timePositionNaut miles runAvg speedWind from/ knotsBaromVisibWave heightAir tempDewpointWater temp
2017-Sep-22 02:00N 39°11' W 075°24'0 0.0
2017-Sep-22 01:30N 39°11' W 075°24'0 0.0
2017-Sep-22 01:01N 39°11' W 075°24'0 0.0
2017-Sep-22 00:30N 39°11' W 075°24'0 0.0
2017-Sep-22 00:00N 39°11' W 075°24'0 0.0
2017-Sep-21 23:30N 39°11' W 075°24'0 0.0
2017-Sep-21 23:00N 39°11' W 075°24'0 0.0
2017-Sep-21 22:30N 39°11' W 075°24'0 0.0
2017-Sep-21 22:00N 39°11' W 075°24'0 0.0
2017-Sep-21 21:30N 39°11' W 075°24'0 0.0
2017-Sep-21 21:00N 39°11' W 075°24'0 0.0
2017-Sep-21 20:30N 39°11' W 075°24'0 0.0
2017-Sep-21 20:00N 39°11' W 075°24'0 0.0
2017-Sep-21 19:30N 39°11' W 075°24'0 0.0
2017-Sep-21 19:00N 39°11' W 075°24'0 0.0
2017-Sep-21 18:30N 39°11' W 075°24'0 0.0
2017-Sep-21 18:00N 39°11' W 075°24'0 0.0
2017-Sep-21 17:30N 39°11' W 075°24'0 0.0
2017-Sep-21 17:00N 39°11' W 075°24'0 0.0
2017-Sep-21 16:30N 39°11' W 075°24'0 0.0
2017-Sep-21 16:00N 39°11' W 075°24'0 0.0
2017-Sep-21 15:30N 39°11' W 075°24'0 0.0
2017-Sep-21 15:00N 39°11' W 075°24'0 0.0
2017-Sep-21 14:30N 39°11' W 075°24'0 0.6
2017-Sep-21 14:00N 39°11' W 075°24'2 3.5
2017-Sep-21 13:30N 39°12' W 075°22'2 3.2
2017-Sep-21 13:01N 39°13' W 075°20'1 2.0
2017-Sep-21 12:30N 39°14' W 075°20'1 1.1
2017-Sep-21 12:00N 39°15' W 075°21'0 0.9
2017-Sep-21 11:31N 39°15' W 075°21'2 4.9
2017-Sep-21 11:00N 39°17' W 075°22'3 5.9
2017-Sep-21 10:30N 39°19' W 075°25'4 7.2
2017-Sep-21 10:00N 39°22' W 075°28'4 8.3
2017-Sep-21 09:30N 39°25' W 075°31'4 9.0
2017-Sep-21 09:01N 39°29' W 075°34'4 8.7
2017-Sep-21 08:30N 39°34' W 075°33'3 6.1
2017-Sep-21 08:00N 39°33' W 075°37'3 5.5
2017-Sep-21 07:30N 39°33' W 075°41'3 5.4
2017-Sep-21 07:00N 39°32' W 075°44'3 5.1
2017-Sep-21 06:30N 39°32' W 075°47'2 4.5
2017-Sep-21 06:00N 39°32' W 075°50'2 4.8
2017-Sep-21 05:30N 39°31' W 075°53'3 5.5
2017-Sep-21 05:00N 39°29' W 075°56'3 6.2
2017-Sep-21 04:30N 39°27' W 075°59'3 6.5
2017-Sep-21 04:00N 39°25' W 076°02'3 6.4
2017-Sep-21 03:30N 39°23' W 076°05'3 6.6
2017-Sep-21 03:00N 39°22' W 076°09'3 7.0
2017-Sep-21 02:30N 39°19' W 076°12'3 6.4
2017-Sep-21 02:00N 39°17' W 076°15'3 7.0
2017-Sep-21 01:30N 39°15' W 076°18'4 7.1
2017-Sep-21 01:00N 39°13' W 076°22'4 7.0
2017-Sep-21 00:30N 39°11' W 076°26'4 6.9
2017-Sep-21 00:00N 39°12' W 076°30'4 7.2
2017-Sep-20 23:30N 39°15' W 076°33'1 1.2
2017-Sep-20 23:00N 39°15' W 076°33'0 0.0
2017-Sep-20 22:30N 39°15' W 076°33'0 0.0
2017-Sep-20 22:00N 39°15' W 076°33'0 0.0
2017-Sep-20 21:30N 39°15' W 076°33'0 0.0
2017-Sep-20 21:00N 39°15' W 076°33'0 0.0
2017-Sep-20 20:30N 39°15' W 076°33'0 0.0
2017-Sep-20 20:00N 39°15' W 076°33'0 0.0
2017-Sep-20 19:30N 39°15' W 076°33'0 0.0
2017-Sep-20 19:00N 39°15' W 076°33'0 0.0
2017-Sep-20 18:30N 39°15' W 076°33'0 0.0
2017-Sep-20 18:00N 39°15' W 076°33'0 0.0
2017-Sep-20 17:30N 39°15' W 076°33'0 0.0
2017-Sep-20 17:00N 39°15' W 076°33'0 0.0
2017-Sep-20 16:30N 39°15' W 076°33'0 0.0
2017-Sep-20 16:00N 39°15' W 076°33'0 0.0
2017-Sep-20 15:30N 39°15' W 076°33'0 0.0
2017-Sep-20 15:00N 39°15' W 076°33'0 0.1
2017-Sep-20 14:00N 39°16' W 076°33'0 0.0
2017-Sep-20 13:30N 39°16' W 076°33'0 0.0
2017-Sep-20 13:00N 39°16' W 076°33'0 0.0
2017-Sep-20 12:30N 39°16' W 076°33'0 0.1
2017-Sep-20 12:00N 39°16' W 076°33'0 0.0
2017-Sep-20 11:30N 39°16' W 076°33'0 0.0
2017-Sep-20 11:00N 39°16' W 076°33'0 0.0
2017-Sep-20 10:30N 39°16' W 076°33'0 0.0
2017-Sep-20 10:00N 39°16' W 076°33'0 0.0
2017-Sep-20 09:30N 39°16' W 076°33'0 0.0
2017-Sep-20 09:00N 39°16' W 076°33'0 0.0
2017-Sep-20 08:30N 39°16' W 076°33'0 0.0
2017-Sep-20 08:00N 39°16' W 076°33'0 0.0
2017-Sep-20 07:30N 39°16' W 076°33'0 0.0
2017-Sep-20 07:00N 39°16' W 076°33'0 0.0
2017-Sep-20 06:30N 39°16' W 076°33'0 0.0
2017-Sep-20 06:00N 39°16' W 076°33'0 0.0
2017-Sep-20 05:30N 39°16' W 076°33'0 0.0
2017-Sep-20 05:00N 39°16' W 076°33'0 0.0
2017-Sep-20 04:30N 39°16' W 076°33'0 0.0
2017-Sep-20 04:00N 39°16' W 076°33'0 0.0
2017-Sep-20 03:30N 39°16' W 076°33'0 0.0
2017-Sep-20 03:00N 39°16' W 076°33'0 0.0
2017-Sep-20 02:30N 39°16' W 076°33'0 0.0
2017-Sep-20 02:00N 39°16' W 076°33'0 0.0
2017-Sep-20 01:30N 39°16' W 076°33'0 0.0
2017-Sep-20 01:00N 39°16' W 076°33'0 0.0
2017-Sep-20 00:30N 39°16' W 076°33'0 0.0
2017-Sep-20 00:00N 39°16' W 076°33'0 0.2
2017-Sep-19 23:30N 39°15' W 076°33'0 0.0
2017-Sep-19 23:00N 39°15' W 076°33'0 0.0
2017-Sep-19 22:30N 39°15' W 076°33'0 0.0
2017-Sep-19 22:00N 39°15' W 076°33'0 0.0
2017-Sep-19 21:30N 39°15' W 076°33'0 0.0
2017-Sep-19 21:00N 39°15' W 076°33'0 0.0
2017-Sep-19 20:30N 39°15' W 076°33'0 0.0
2017-Sep-19 20:00N 39°15' W 076°33'0 0.0
2017-Sep-19 19:30N 39°15' W 076°33'0 0.0
2017-Sep-19 19:00N 39°15' W 076°33'0 0.0
2017-Sep-19 18:30N 39°15' W 076°33'0 0.0
2017-Sep-19 18:00N 39°15' W 076°33'0 0.0
2017-Sep-19 17:30N 39°15' W 076°33'0 0.0
2017-Sep-19 17:00N 39°15' W 076°33'0 0.0
2017-Sep-19 16:30N 39°15' W 076°33'0 0.0
2017-Sep-19 16:00N 39°15' W 076°33'0 0.1
2017-Sep-19 15:30N 39°16' W 076°33'0 0.1
2017-Sep-19 15:00N 39°15' W 076°33'0 0.0
2017-Sep-19 14:30N 39°15' W 076°33'0 0.0
2017-Sep-19 14:00N 39°15' W 076°33'0 0.0
2017-Sep-19 13:30N 39°15' W 076°33'0 0.0
2017-Sep-19 13:00N 39°15' W 076°33'0 0.0
2017-Sep-19 12:30N 39°15' W 076°33'0 0.0
2017-Sep-19 12:00N 39°15' W 076°33'0 0.0
2017-Sep-19 11:30N 39°15' W 076°33'0 0.0
2017-Sep-19 11:00N 39°15' W 076°33'0 0.0
2017-Sep-19 10:30N 39°15' W 076°33'0 0.0
2017-Sep-19 10:00N 39°15' W 076°33'0 0.0
2017-Sep-19 09:30N 39°15' W 076°33'0 0.0
2017-Sep-19 01:17N 39°15' W 076°33'0 0.0
2017-Sep-19 01:00N 39°15' W 076°33'1 1.9
2017-Sep-19 00:30N 39°15' W 076°34'0 0.0
2017-Sep-19 00:00N 39°15' W 076°34'0 0.0
2017-Sep-18 23:30N 39°15' W 076°34'0 0.0
2017-Sep-18 23:00N 39°15' W 076°34'0 0.0
2017-Sep-18 22:30N 39°15' W 076°34'0 0.0
2017-Sep-18 22:00N 39°15' W 076°34'0 0.0
2017-Sep-18 21:30N 39°15' W 076°34'0 0.0
2017-Sep-18 21:00N 39°15' W 076°34'0 0.0
2017-Sep-18 20:30N 39°15' W 076°34'0 0.0
2017-Sep-18 20:00N 39°15' W 076°34'0 0.0
2017-Sep-18 19:30N 39°15' W 076°34'0 0.0
2017-Sep-18 19:00N 39°15' W 076°34'0 0.0
2017-Sep-18 18:30N 39°15' W 076°34'0 0.0
2017-Sep-18 18:00N 39°15' W 076°34'0 0.0
2017-Sep-18 17:30N 39°15' W 076°34'0 0.0
2017-Sep-18 17:00N 39°15' W 076°34'0 0.0
2017-Sep-18 16:30N 39°15' W 076°34'0 0.0
2017-Sep-18 16:00N 39°15' W 076°34'0 0.0
2017-Sep-18 15:30N 39°15' W 076°34'0 0.0
2017-Sep-18 15:00N 39°15' W 076°34'0 0.0
2017-Sep-18 14:30N 39°15' W 076°34'0 0.0
2017-Sep-18 14:00N 39°15' W 076°34'1 1.8
2017-Sep-18 13:30N 39°15' W 076°33'0 0.3
2017-Sep-18 13:00N 39°16' W 076°33'0 0.0
2017-Sep-18 12:30N 39°16' W 076°33'0 0.0
2017-Sep-18 12:00N 39°16' W 076°33'0 0.0
2017-Sep-18 11:30N 39°16' W 076°33'0 0.0
2017-Sep-18 11:00N 39°16' W 076°33'0 0.0
2017-Sep-18 10:30N 39°16' W 076°33'0 0.0
2017-Sep-18 10:00N 39°16' W 076°33'0 0.0
2017-Sep-18 09:30N 39°16' W 076°33'0 0.0
2017-Sep-18 09:00N 39°16' W 076°33'0 0.0
2017-Sep-18 08:30N 39°16' W 076°33'0 0.0
2017-Sep-18 08:00N 39°16' W 076°33'0 0.0
2017-Sep-18 07:30N 39°16' W 076°33'0 0.0
2017-Sep-18 07:00N 39°16' W 076°33'0 0.0
2017-Sep-18 06:30N 39°16' W 076°33'0 0.0
2017-Sep-18 06:00N 39°16' W 076°33'0 0.0
2017-Sep-18 05:30N 39°16' W 076°33'0 0.0
2017-Sep-18 05:00N 39°16' W 076°33'0 0.0
2017-Sep-18 04:30N 39°16' W 076°33'0 0.0
2017-Sep-18 04:00N 39°16' W 076°33'0 0.0
2017-Sep-18 03:30N 39°16' W 076°33'0 0.0
2017-Sep-18 03:00N 39°16' W 076°33'0 0.0
2017-Sep-18 02:30N 39°16' W 076°33'0 0.0
2017-Sep-18 02:00N 39°16' W 076°33'0 0.0
2017-Sep-18 01:30N 39°16' W 076°33'0 0.0
2017-Sep-18 01:00N 39°16' W 076°33'0 0.0
2017-Sep-18 00:30N 39°16' W 076°33'0 0.0
2017-Sep-18 00:00N 39°16' W 076°33'0 0.0
2017-Sep-17 23:30N 39°16' W 076°33'0 0.0
2017-Sep-17 23:00N 39°16' W 076°33'0 0.7
2017-Sep-17 22:30N 39°15' W 076°34'1 1.6
2017-Sep-17 22:00N 39°15' W 076°34'0 0.0
2017-Sep-17 21:30N 39°15' W 076°34'0 0.0
2017-Sep-17 21:00N 39°15' W 076°34'0 0.0
2017-Sep-17 20:30N 39°15' W 076°34'0 0.0
2017-Sep-17 20:00N 39°15' W 076°34'0 0.0
2017-Sep-17 19:30N 39°15' W 076°34'1 1.9
2017-Sep-17 19:00N 39°15' W 076°33'0 0.4
2017-Sep-17 18:30N 39°16' W 076°33'0 0.0
2017-Sep-17 18:00N 39°16' W 076°33'0 0.0
2017-Sep-17 17:30N 39°16' W 076°33'0 0.0
2017-Sep-17 17:00N 39°16' W 076°33'0 0.0
2017-Sep-17 16:30N 39°16' W 076°33'0 0.0
2017-Sep-17 16:00N 39°16' W 076°33'0 0.0
2017-Sep-17 15:30N 39°16' W 076°33'0 0.0
2017-Sep-17 15:00N 39°16' W 076°33'0 0.0
2017-Sep-17 14:30N 39°16' W 076°33'0 0.0
2017-Sep-17 14:00N 39°16' W 076°33'0 0.0
2017-Sep-17 13:30N 39°16' W 076°33'0 0.0
2017-Sep-17 13:00N 39°16' W 076°33'0 0.0
2017-Sep-17 12:30N 39°16' W 076°33'0 0.0
2017-Sep-17 12:00N 39°16' W 076°33'0 0.0
2017-Sep-17 11:30N 39°16' W 076°33'0 0.0
2017-Sep-17 11:00N 39°16' W 076°33'0 0.0
2017-Sep-17 10:30N 39°16' W 076°33'0 0.0
2017-Sep-17 10:00N 39°16' W 076°33'0 0.0
2017-Sep-17 09:30N 39°16' W 076°33'0 0.0
2017-Sep-17 09:00N 39°16' W 076°33'0 0.0
2017-Sep-17 08:30N 39°16' W 076°33'0 0.0
2017-Sep-17 08:00N 39°16' W 076°33'0 0.0
2017-Sep-17 07:30N 39°16' W 076°33'0 0.0
2017-Sep-17 07:00N 39°16' W 076°33'0 0.0
2017-Sep-17 06:30N 39°16' W 076°33'0 0.0
2017-Sep-17 06:00N 39°16' W 076°33'0 0.0
2017-Sep-17 05:30N 39°16' W 076°33'0 0.0
2017-Sep-17 05:00N 39°16' W 076°33'0 0.0
2017-Sep-17 04:30N 39°16' W 076°33'0 0.0
2017-Sep-17 04:00N 39°16' W 076°33'0 0.0
2017-Sep-17 03:30N 39°16' W 076°33'0 0.0
2017-Sep-17 03:00N 39°16' W 076°33'0 0.0
2017-Sep-17 02:30N 39°16' W 076°33'0 0.0
2017-Sep-17 02:00N 39°16' W 076°33'0 0.0
2017-Sep-17 01:30N 39°16' W 076°33'0 0.0
2017-Sep-17 01:00N 39°16' W 076°33'0 0.0
2017-Sep-17 00:30N 39°16' W 076°33'0 0.0
2017-Sep-17 00:00N 39°16' W 076°33'0 0.0
2017-Sep-16 23:30N 39°16' W 076°33'0 0.0
2017-Sep-16 23:00N 39°16' W 076°33'0 0.0
2017-Sep-16 22:30N 39°16' W 076°33'0 0.0
2017-Sep-16 22:00N 39°16' W 076°33'0 0.0
2017-Sep-16 21:30N 39°16' W 076°33'0 0.0
2017-Sep-16 21:00N 39°16' W 076°33'0 0.0
2017-Sep-16 20:30N 39°16' W 076°33'0 0.0
2017-Sep-16 20:00N 39°16' W 076°33'0 0.2
2017-Sep-16 19:30N 39°15' W 076°33'3 5.1
2017-Sep-16 19:00N 39°13' W 076°32'4 7.6
2017-Sep-16 18:30N 39°11' W 076°28'10 7.0
2017-Sep-16 17:06N 39°16' W 076°16'1 7.5
2017-Sep-16 16:58N 39°16' W 076°15'4 7.7
2017-Sep-16 16:29N 39°19' W 076°13'4 8.6
2017-Sep-16 16:00N 39°22' W 076°08'4 8.8
2017-Sep-16 15:30N 39°24' W 076°03'4 8.6
2017-Sep-16 15:00N 39°27' W 075°59'4 8.8
2017-Sep-16 14:31N 39°30' W 075°55'4 8.6
2017-Sep-16 14:00N 39°32' W 075°50'4 8.1
2017-Sep-16 13:30N 39°32' W 075°45'4 8.1
2017-Sep-16 13:00N 39°33' W 075°40'4 7.4
2017-Sep-16 12:30N 39°33' W 075°35'2 4.5
2017-Sep-16 12:01N 39°35' W 075°34'3 5.0
2017-Sep-16 11:30N 39°38' W 075°34'3 5.8
2017-Sep-16 11:00N 39°40' W 075°32'3 5.9
2017-Sep-16 10:30N 39°43' W 075°30'3 6.4
2017-Sep-16 10:00N 39°46' W 075°29'4 7.3
2017-Sep-16 09:30N 39°48' W 075°25'4 8.6
2017-Sep-16 09:00N 39°51' W 075°20'4 8.8
2017-Sep-16 08:30N 39°51' W 075°15'4 8.7
2017-Sep-16 08:00N 39°53' W 075°10'4 7.8
2017-Sep-16 07:30N 39°57' W 075°08'4 8.3
2017-Sep-16 07:00N 39°59' W 075°04'4 8.5
2017-Sep-16 06:30N 40°02' W 074°60'4 8.8
2017-Sep-16 06:01N 40°04' W 074°55'2 3.9
2017-Sep-16 05:31N 40°05' W 074°52'0 0.0
2017-Sep-16 05:00N 40°05' W 074°52'0 0.0
2017-Sep-16 04:30N 40°05' W 074°52'0 0.0
2017-Sep-16 03:50N 40°05' W 074°52'0 0.0
2017-Sep-16 03:30N 40°05' W 074°52'0 0.0
2017-Sep-16 01:52N 40°05' W 074°52'0 0.0
2017-Sep-16 01:30N 40°05' W 074°52'0 0.0
2017-Sep-16 01:00N 40°05' W 074°52'0 0.0
2017-Sep-16 00:30N 40°05' W 074°52'0 0.0
2017-Sep-16 00:00N 40°05' W 074°52'0 0.0
2017-Sep-15 22:40N 40°05' W 074°52'0 0.0
2017-Sep-15 22:30N 40°05' W 074°52'0 0.0
2017-Sep-15 21:59N 40°05' W 074°52'0 0.0
2017-Sep-15 21:29N 40°05' W 074°52'0 0.0
2017-Sep-15 21:00N 40°05' W 074°52'0 0.0
2017-Sep-15 20:05N 40°05' W 074°52'0 0.0
2017-Sep-15 19:56N 40°05' W 074°52'0 0.0
2017-Sep-15 19:09N 40°05' W 074°52'0 0.0
2017-Sep-15 18:54N 40°05' W 074°52'0 0.0
2017-Sep-15 18:30N 40°05' W 074°52'0 0.0
2017-Sep-15 17:59N 40°05' W 074°52'0 0.0
2017-Sep-15 17:30N 40°05' W 074°52'0 0.0
2017-Sep-15 17:00N 40°05' W 074°52'0 0.0
2017-Sep-15 16:30N 40°05' W 074°52'0 0.0
2017-Sep-15 15:58N 40°05' W 074°52'0 0.0
2017-Sep-15 15:28N 40°05' W 074°52'0 0.9
2017-Sep-15 15:00N 40°05' W 074°53'2 4.6
2017-Sep-15 14:30N 40°04' W 074°56'3 5.2
2017-Sep-15 14:00N 40°03' W 074°59'3 5.3
2017-Sep-15 13:30N 40°01' W 075°01'3 5.3
2017-Sep-15 13:00N 39°59' W 075°04'3 5.8
2017-Sep-15 12:31N 39°58' W 075°07'3 5.9
2017-Sep-15 12:01N 39°55' W 075°08'3 5.9
2017-Sep-15 11:30N 39°53' W 075°11'4 7.3
2017-Sep-15 11:01N 39°51' W 075°15'4 7.6
2017-Sep-15 10:31N 39°51' W 075°20'4 7.7
2017-Sep-15 10:01N 39°49' W 075°24'4 7.1
2017-Sep-15 09:30N 39°47' W 075°28'3 7.0
2017-Sep-15 09:00N 39°44' W 075°30'4 7.1
2017-Sep-15 08:30N 39°40' W 075°32'3 6.9
2017-Sep-15 08:00N 39°38' W 075°34'3 6.5
2017-Sep-15 07:30N 39°35' W 075°33'3 6.2
2017-Sep-15 07:00N 39°33' W 075°37'4 8.6
2017-Sep-15 06:30N 39°33' W 075°42'4 8.5
2017-Sep-15 06:00N 39°32' W 075°48'4 7.7
2017-Sep-15 05:30N 39°31' W 075°53'4 7.2
2017-Sep-15 05:00N 39°29' W 075°57'4 7.0
2017-Sep-15 04:30N 39°27' W 075°60'3 6.8
2017-Sep-15 04:00N 39°24' W 076°03'3 6.5
2017-Sep-15 03:30N 39°23' W 076°06'3 6.2
2017-Sep-15 03:00N 39°21' W 076°10'3 5.8
2017-Sep-15 02:30N 39°19' W 076°13'3 5.3
2017-Sep-15 02:00N 39°16' W 076°14'3 5.6
2017-Sep-15 01:30N 39°14' W 076°15'3 5.5
2017-Sep-15 01:00N 39°12' W 076°17'3 5.5
2017-Sep-15 00:30N 39°10' W 076°19'3 5.7
2017-Sep-15 00:00N 39°10' W 076°23'3 6.6
2017-Sep-14 23:30N 39°11' W 076°27'3 6.7
2017-Sep-14 23:00N 39°12' W 076°31'3 6.6
2017-Sep-14 22:30N 39°15' W 076°34'1 1.4
2017-Sep-14 22:00N 39°15' W 076°34'0 0.0
2017-Sep-14 21:30N 39°15' W 076°34'0 0.1
2017-Sep-14 21:00N 39°15' W 076°34'0 0.0
2017-Sep-14 20:30N 39°15' W 076°34'0 0.0
2017-Sep-14 20:00N 39°15' W 076°34'0 0.0
2017-Sep-14 19:30N 39°15' W 076°34'0 0.0
2017-Sep-14 19:00N 39°15' W 076°34'0 0.0
2017-Sep-14 18:30N 39°15' W 076°34'0 0.0
2017-Sep-14 18:00N 39°15' W 076°34'0 0.0
2017-Sep-14 17:30N 39°15' W 076°34'0 0.0
2017-Sep-14 17:00N 39°15' W 076°34'0 0.0
2017-Sep-14 16:30N 39°15' W 076°34'0 0.0
2017-Sep-14 16:00N 39°15' W 076°34'0 0.0
2017-Sep-14 15:30N 39°15' W 076°34'0 0.0
2017-Sep-14 15:00N 39°15' W 076°34'0 0.0
2017-Sep-14 14:30N 39°15' W 076°34'0 0.0
2017-Sep-14 14:00N 39°15' W 076°34'0 0.0
2017-Sep-14 13:30N 39°15' W 076°34'0 0.0
2017-Sep-14 13:00N 39°15' W 076°34'0 0.0
2017-Sep-14 12:30N 39°15' W 076°34'0 0.0
2017-Sep-14 12:00N 39°15' W 076°34'0 0.0
2017-Sep-14 11:30N 39°15' W 076°34'0 0.0
2017-Sep-14 11:00N 39°15' W 076°34'0 0.0
2017-Sep-14 10:30N 39°15' W 076°34'0 0.0
2017-Sep-14 10:00N 39°15' W 076°34'0 0.0
2017-Sep-14 09:30N 39°15' W 076°34'0 0.0
2017-Sep-14 09:00N 39°15' W 076°34'0 0.0
2017-Sep-14 08:30N 39°15' W 076°34'0 0.0
2017-Sep-14 08:00N 39°15' W 076°34'0 0.6
2017-Sep-14 07:30N 39°15' W 076°34'0 0.0
2017-Sep-14 07:00N 39°15' W 076°34'0 0.0
2017-Sep-14 06:30N 39°15' W 076°34'0 0.7
2017-Sep-14 06:01N 39°15' W 076°34'0 0.0
2017-Sep-14 05:30N 39°15' W 076°34'0 0.0
2017-Sep-14 05:01N 39°15' W 076°34'2 4.4
2017-Sep-14 04:30N 39°14' W 076°32'4 7.9
2017-Sep-14 04:00N 39°11' W 076°28'3 6.9
2017-Sep-14 03:30N 39°12' W 076°24'4 7.0
2017-Sep-14 03:00N 39°14' W 076°20'4 7.1
2017-Sep-14 02:30N 39°16' W 076°16'4 7.3
2017-Sep-14 02:00N 39°19' W 076°13'4 8.2
2017-Sep-14 01:30N 39°22' W 076°09'4 8.9
2017-Sep-14 01:00N 39°24' W 076°04'4 8.7
2017-Sep-14 00:30N 39°26' W 075°60'5 9.0
2017-Sep-14 00:00N 39°30' W 075°56'5 9.2
2017-Sep-13 23:30N 39°32' W 075°51'5 9.3
2017-Sep-13 23:00N 39°32' W 075°45'5 9.4
2017-Sep-13 22:30N 39°33' W 075°39'4 8.7
2017-Sep-13 22:00N 39°34' W 075°33'3 6.2
2017-Sep-13 21:30N 39°37' W 075°35'3 5.8
2017-Sep-13 21:00N 39°39' W 075°33'3 5.9
2017-Sep-13 20:31N 39°42' W 075°31'3 5.6
2017-Sep-13 20:00N 39°45' W 075°30'3 6.1
2017-Sep-13 19:30N 39°47' W 075°28'3 6.6
2017-Sep-13 19:00N 39°49' W 075°24'4 7.2
2017-Sep-13 18:31N 39°51' W 075°20'4 8.1
2017-Sep-13 18:00N 39°51' W 075°15'4 8.7
2017-Sep-13 17:30N 39°53' W 075°10'4 7.6
2017-Sep-13 17:00N 39°57' W 075°08'4 8.3
2017-Sep-13 16:30N 39°59' W 075°04'4 8.5
2017-Sep-13 16:00N 40°02' W 074°60'4 8.8
2017-Sep-13 15:31N 40°04' W 074°55'2 4.1
2017-Sep-13 15:01N 40°05' W 074°52'0 0.0
2017-Sep-13 14:30N 40°05' W 074°52'0 0.0
2017-Sep-13 14:00N 40°05' W 074°52'0 0.0
2017-Sep-13 13:30N 40°05' W 074°52'0 0.0
2017-Sep-13 13:00N 40°05' W 074°52'0 0.0
2017-Sep-13 12:30N 40°05' W 074°52'0 0.0
2017-Sep-13 12:00N 40°05' W 074°52'0 0.0
2017-Sep-13 11:30N 40°05' W 074°52'0 0.0
2017-Sep-13 11:00N 40°05' W 074°52'0 0.0
2017-Sep-13 10:30N 40°05' W 074°52'0 0.0
2017-Sep-13 10:00N 40°05' W 074°52'0 0.0
2017-Sep-13 09:30N 40°05' W 074°52'0 0.0
2017-Sep-13 09:00N 40°05' W 074°52'0 0.0
2017-Sep-13 08:30N 40°05' W 074°52'0 0.0
2017-Sep-13 08:01N 40°05' W 074°52'0 0.0
2017-Sep-13 07:30N 40°05' W 074°52'0 0.0
2017-Sep-13 07:00N 40°05' W 074°52'0 0.0
2017-Sep-13 06:30N 40°05' W 074°52'0 0.0
2017-Sep-13 06:00N 40°05' W 074°52'0 0.0
2017-Sep-13 05:30N 40°05' W 074°52'0 0.0
2017-Sep-13 05:00N 40°05' W 074°52'0 0.0
2017-Sep-13 04:30N 40°05' W 074°52'0 0.0
2017-Sep-13 04:00N 40°05' W 074°52'0 0.0
2017-Sep-13 03:30N 40°05' W 074°52'0 0.0
2017-Sep-13 03:00N 40°05' W 074°52'0 0.0
2017-Sep-13 02:30N 40°05' W 074°52'0 0.0
2017-Sep-13 02:00N 40°05' W 074°52'0 0.0
2017-Sep-13 01:30N 40°05' W 074°52'0 0.0
2017-Sep-13 01:00N 40°05' W 074°52'0 0.0
2017-Sep-13 00:30N 40°05' W 074°52'2 3.0
2017-Sep-13 00:00N 40°04' W 074°54'2 4.2
2017-Sep-12 23:31N 40°04' W 074°57'2 4.4
2017-Sep-12 23:00N 40°02' W 074°59'2 4.7
2017-Sep-12 22:30N 40°01' W 075°02'2 4.5
2017-Sep-12 22:01N 39°59' W 075°04'2 4.3
2017-Sep-12 21:30N 39°58' W 075°06'2 4.3
2017-Sep-12 21:01N 39°57' W 075°08'2 4.6
2017-Sep-12 20:30N 39°55' W 075°08'2 4.2
2017-Sep-12 20:00N 39°53' W 075°09'2 4.6
2017-Sep-12 19:30N 39°53' W 075°12'2 4.4
2017-Sep-12 19:01N 39°51' W 075°14'2 4.4
2017-Sep-12 18:31N 39°51' W 075°17'2 4.6
2017-Sep-12 18:01N 39°51' W 075°20'3 5.3
2017-Sep-12 17:30N 39°49' W 075°23'3 6.4
2017-Sep-12 17:01N 39°47' W 075°27'3 5.8
2017-Sep-12 16:30N 39°45' W 075°29'3 5.4
2017-Sep-12 16:00N 39°43' W 075°30'3 5.2
2017-Sep-12 15:30N 39°40' W 075°32'2 4.7
2017-Sep-12 15:00N 39°39' W 075°34'2 4.3
2017-Sep-12 14:31N 39°37' W 075°34'2 4.6
2017-Sep-12 14:00N 39°34' W 075°33'3 5.3
2017-Sep-12 13:30N 39°33' W 075°36'3 6.5
2017-Sep-12 13:01N 39°33' W 075°40'3 6.3
2017-Sep-12 12:30N 39°32' W 075°45'18 5.5
2017-Sep-12 09:15N 39°23' W 076°04'1 5.7
2017-Sep-12 09:00N 39°23' W 076°06'3 5.7
2017-Sep-12 08:30N 39°21' W 076°09'3 5.8
2017-Sep-12 08:00N 39°20' W 076°12'3 5.9
2017-Sep-12 07:30N 39°17' W 076°14'3 6.2
2017-Sep-12 07:00N 39°14' W 076°15'3 6.4
2017-Sep-12 06:30N 39°11' W 076°17'3 6.5
2017-Sep-12 06:00N 39°09' W 076°20'3 6.7
2017-Sep-12 05:30N 39°10' W 076°24'3 6.9
2017-Sep-12 05:00N 39°11' W 076°28'3 6.8
2017-Sep-12 04:30N 39°13' W 076°32'3 5.7
2017-Sep-12 04:00N 39°15' W 076°34'0 0.2
2017-Sep-12 03:30N 39°15' W 076°34'0 0.0
2017-Sep-12 03:00N 39°15' W 076°34'0 0.1
2017-Sep-12 02:30N 39°15' W 076°34'  

Dump ship's entire track history